sensor_id;sensor_type;location;lat;lon;timestamp;P1;durP1;ratioP1;P2;durP2;ratioP2
20283;SDS011;10301;50.832;4.080;2023-02-24T00:01:24;24.53;;;6.67;;
20283;SDS011;10301;50.832;4.080;2023-02-24T00:03:57;25.87;;;6.53;;
20283;SDS011;10301;50.832;4.080;2023-02-24T00:06:24;20.50;;;6.57;;
20283;SDS011;10301;50.832;4.080;2023-02-24T00:09:00;27.00;;;6.40;;
20283;SDS011;10301;50.832;4.080;2023-02-24T00:11:32;26.97;;;6.60;;
20283;SDS011;10301;50.832;4.080;2023-02-24T00:13:58;19.40;;;6.03;;
20283;SDS011;10301;50.832;4.080;2023-02-24T00:16:24;27.63;;;6.53;;
20283;SDS011;10301;50.832;4.080;2023-02-24T00:18:51;24.50;;;6.20;;
20283;SDS011;10301;50.832;4.080;2023-02-24T00:21:17;22.40;;;6.07;;
20283;SDS011;10301;50.832;4.080;2023-02-24T00:23:43;25.30;;;6.40;;
20283;SDS011;10301;50.832;4.080;2023-02-24T00:26:11;19.90;;;5.90;;
20283;SDS011;10301;50.832;4.080;2023-02-24T00:28:39;27.10;;;5.97;;
20283;SDS011;10301;50.832;4.080;2023-02-24T00:31:06;31.77;;;6.80;;
20283;SDS011;10301;50.832;4.080;2023-02-24T00:33:40;19.23;;;6.03;;
20283;SDS011;10301;50.832;4.080;2023-02-24T00:36:12;26.30;;;6.33;;
20283;SDS011;10301;50.832;4.080;2023-02-24T00:38:40;20.07;;;6.10;;
20283;SDS011;10301;50.832;4.080;2023-02-24T00:41:28;25.07;;;5.37;;
20283;SDS011;10301;50.832;4.080;2023-02-24T00:43:56;27.97;;;5.93;;
20283;SDS011;10301;50.832;4.080;2023-02-24T00:46:36;31.43;;;6.07;;
20283;SDS011;10301;50.832;4.080;2023-02-24T00:49:04;22.27;;;5.60;;
20283;SDS011;10301;50.832;4.080;2023-02-24T00:51:40;25.30;;;6.37;;
20283;SDS011;10301;50.832;4.080;2023-02-24T00:54:07;27.50;;;5.83;;
20283;SDS011;10301;50.832;4.080;2023-02-24T00:56:38;23.43;;;6.30;;
20283;SDS011;10301;50.832;4.080;2023-02-24T00:59:05;23.70;;;6.17;;
20283;SDS011;10301;50.832;4.080;2023-02-24T01:01:32;20.50;;;5.20;;
20283;SDS011;10301;50.832;4.080;2023-02-24T01:03:59;27.23;;;5.90;;
20283;SDS011;10301;50.832;4.080;2023-02-24T01:06:35;21.07;;;5.53;;
20283;SDS011;10301;50.832;4.080;2023-02-24T01:09:08;18.10;;;4.93;;
20283;SDS011;10301;50.832;4.080;2023-02-24T01:11:39;28.03;;;5.90;;
20283;SDS011;10301;50.832;4.080;2023-02-24T01:14:25;24.10;;;4.80;;
20283;SDS011;10301;50.832;4.080;2023-02-24T01:16:53;17.83;;;4.80;;
20283;SDS011;10301;50.832;4.080;2023-02-24T01:19:20;23.13;;;4.60;;
20283;SDS011;10301;50.832;4.080;2023-02-24T01:21:48;17.53;;;3.87;;
20283;SDS011;10301;50.832;4.080;2023-02-24T01:24:19;15.27;;;3.73;;
20283;SDS011;10301;50.832;4.080;2023-02-24T01:26:45;14.27;;;3.50;;
20283;SDS011;10301;50.832;4.080;2023-02-24T01:29:11;17.97;;;3.77;;
20283;SDS011;10301;50.832;4.080;2023-02-24T01:31:37;17.87;;;3.60;;
20283;SDS011;10301;50.832;4.080;2023-02-24T01:34:06;20.80;;;4.07;;
20283;SDS011;10301;50.832;4.080;2023-02-24T01:36:36;15.23;;;3.33;;
20283;SDS011;10301;50.832;4.080;2023-02-24T01:39:03;19.07;;;2.97;;
20283;SDS011;10301;50.832;4.080;2023-02-24T01:41:35;16.00;;;3.27;;
20283;SDS011;10301;50.832;4.080;2023-02-24T01:46:37;18.40;;;3.83;;
20283;SDS011;10301;50.832;4.080;2023-02-24T01:49:09;21.53;;;4.17;;
20283;SDS011;10301;50.832;4.080;2023-02-24T01:51:44;21.20;;;3.10;;
20283;SDS011;10301;50.832;4.080;2023-02-24T01:54:18;12.63;;;3.03;;
20283;SDS011;10301;50.832;4.080;2023-02-24T01:56:48;19.67;;;3.33;;
20283;SDS011;10301;50.832;4.080;2023-02-24T01:59:14;19.07;;;3.33;;
20283;SDS011;10301;50.832;4.080;2023-02-24T02:01:40;19.37;;;3.50;;
20283;SDS011;10301;50.832;4.080;2023-02-24T02:07:10;25.27;;;3.83;;
20283;SDS011;10301;50.832;4.080;2023-02-24T02:09:38;18.03;;;3.17;;
20283;SDS011;10301;50.832;4.080;2023-02-24T02:12:07;16.70;;;3.40;;
20283;SDS011;10301;50.832;4.080;2023-02-24T02:14:34;17.63;;;3.77;;
20283;SDS011;10301;50.832;4.080;2023-02-24T02:17:06;18.50;;;3.67;;
20283;SDS011;10301;50.832;4.080;2023-02-24T02:25:12;17.57;;;3.73;;
20283;SDS011;10301;50.832;4.080;2023-02-24T02:39:11;13.10;;;2.93;;
20283;SDS011;10301;50.832;4.080;2023-02-24T02:44:37;24.03;;;3.43;;
20283;SDS011;10301;50.832;4.080;2023-02-24T02:47:27;14.37;;;3.13;;
20283;SDS011;10301;50.832;4.080;2023-02-24T02:50:04;14.93;;;3.07;;
20283;SDS011;10301;50.832;4.080;2023-02-24T02:52:45;18.30;;;3.27;;
20283;SDS011;10301;50.832;4.080;2023-02-24T02:55:19;18.93;;;3.13;;
20283;SDS011;10301;50.832;4.080;2023-02-24T02:57:50;13.07;;;3.03;;
20283;SDS011;10301;50.832;4.080;2023-02-24T03:00:22;12.93;;;2.93;;
20283;SDS011;10301;50.832;4.080;2023-02-24T03:02:57;20.80;;;2.97;;
20283;SDS011;10301;50.832;4.080;2023-02-24T03:05:38;13.50;;;3.00;;
20283;SDS011;10301;50.832;4.080;2023-02-24T03:08:11;21.50;;;4.10;;
20283;SDS011;10301;50.832;4.080;2023-02-24T03:10:42;20.47;;;3.67;;
20283;SDS011;10301;50.832;4.080;2023-02-24T03:13:15;20.67;;;3.50;;
20283;SDS011;10301;50.832;4.080;2023-02-24T03:15:51;18.50;;;3.20;;
20283;SDS011;10301;50.832;4.080;2023-02-24T03:18:20;23.10;;;3.13;;
20283;SDS011;10301;50.832;4.080;2023-02-24T03:20:53;20.73;;;3.37;;
20283;SDS011;10301;50.832;4.080;2023-02-24T03:23:49;23.27;;;3.60;;
20283;SDS011;10301;50.832;4.080;2023-02-24T03:29:26;13.10;;;2.90;;
20283;SDS011;10301;50.832;4.080;2023-02-24T03:32:04;21.10;;;3.53;;
20283;SDS011;10301;50.832;4.080;2023-02-24T03:37:28;16.50;;;2.77;;
20283;SDS011;10301;50.832;4.080;2023-02-24T03:39:58;12.33;;;3.03;;
20283;SDS011;10301;50.832;4.080;2023-02-24T03:42:35;17.40;;;3.50;;
20283;SDS011;10301;50.832;4.080;2023-02-24T03:45:05;14.67;;;3.37;;
20283;SDS011;10301;50.832;4.080;2023-02-24T03:47:32;22.97;;;3.63;;
20283;SDS011;10301;50.832;4.080;2023-02-24T03:49:58;14.00;;;3.60;;
20283;SDS011;10301;50.832;4.080;2023-02-24T03:57:49;18.77;;;4.30;;
20283;SDS011;10301;50.832;4.080;2023-02-24T04:02:53;19.27;;;3.83;;
20283;SDS011;10301;50.832;4.080;2023-02-24T04:05:27;18.90;;;3.53;;
20283;SDS011;10301;50.832;4.080;2023-02-24T04:07:57;17.00;;;4.17;;
20283;SDS011;10301;50.832;4.080;2023-02-24T04:16:00;15.17;;;3.70;;
20283;SDS011;10301;50.832;4.080;2023-02-24T04:18:32;19.47;;;5.17;;
20283;SDS011;10301;50.832;4.080;2023-02-24T04:20:58;26.20;;;9.40;;
20283;SDS011;10301;50.832;4.080;2023-02-24T04:23:40;21.37;;;7.50;;
20283;SDS011;10301;50.832;4.080;2023-02-24T04:26:08;20.87;;;4.43;;
20283;SDS011;10301;50.832;4.080;2023-02-24T04:28:38;19.30;;;3.53;;
20283;SDS011;10301;50.832;4.080;2023-02-24T04:31:06;24.73;;;3.97;;
20283;SDS011;10301;50.832;4.080;2023-02-24T04:33:35;19.43;;;3.83;;
20283;SDS011;10301;50.832;4.080;2023-02-24T04:36:02;20.67;;;4.10;;
20283;SDS011;10301;50.832;4.080;2023-02-24T04:38:29;21.10;;;4.27;;
20283;SDS011;10301;50.832;4.080;2023-02-24T04:40:55;22.27;;;4.33;;
20283;SDS011;10301;50.832;4.080;2023-02-24T04:43:21;23.63;;;4.13;;
20283;SDS011;10301;50.832;4.080;2023-02-24T04:45:47;17.77;;;4.23;;
20283;SDS011;10301;50.832;4.080;2023-02-24T04:48:15;18.97;;;4.30;;
20283;SDS011;10301;50.832;4.080;2023-02-24T04:50:44;24.57;;;5.17;;
20283;SDS011;10301;50.832;4.080;2023-02-24T04:53:11;23.60;;;6.57;;
20283;SDS011;10301;50.832;4.080;2023-02-24T04:55:39;20.83;;;4.50;;
20283;SDS011;10301;50.832;4.080;2023-02-24T04:58:11;20.03;;;4.00;;
20283;SDS011;10301;50.832;4.080;2023-02-24T05:00:38;21.53;;;4.57;;
20283;SDS011;10301;50.832;4.080;2023-02-24T05:03:06;12.90;;;3.70;;
20283;SDS011;10301;50.832;4.080;2023-02-24T05:05:36;17.50;;;3.40;;
20283;SDS011;10301;50.832;4.080;2023-02-24T05:08:06;21.43;;;3.67;;
20283;SDS011;10301;50.832;4.080;2023-02-24T05:10:37;22.80;;;3.63;;
20283;SDS011;10301;50.832;4.080;2023-02-24T05:13:05;20.77;;;7.37;;
20283;SDS011;10301;50.832;4.080;2023-02-24T05:15:33;19.00;;;4.87;;
20283;SDS011;10301;50.832;4.080;2023-02-24T05:18:04;15.53;;;4.27;;
20283;SDS011;10301;50.832;4.080;2023-02-24T05:20:38;26.63;;;4.40;;
20283;SDS011;10301;50.832;4.080;2023-02-24T05:23:35;20.30;;;3.33;;
20283;SDS011;10301;50.832;4.080;2023-02-24T05:26:08;14.17;;;3.60;;
20283;SDS011;10301;50.832;4.080;2023-02-24T05:28:36;18.13;;;3.70;;
20283;SDS011;10301;50.832;4.080;2023-02-24T05:31:08;17.10;;;3.57;;
20283;SDS011;10301;50.832;4.080;2023-02-24T05:33:39;19.73;;;3.13;;
20283;SDS011;10301;50.832;4.080;2023-02-24T05:36:08;18.20;;;3.80;;
20283;SDS011;10301;50.832;4.080;2023-02-24T05:38:36;12.93;;;3.23;;
20283;SDS011;10301;50.832;4.080;2023-02-24T05:41:03;14.73;;;3.20;;
20283;SDS011;10301;50.832;4.080;2023-02-24T05:43:31;15.07;;;3.67;;
20283;SDS011;10301;50.832;4.080;2023-02-24T05:46:00;28.20;;;10.20;;
20283;SDS011;10301;50.832;4.080;2023-02-24T05:48:31;32.90;;;12.70;;
20283;SDS011;10301;50.832;4.080;2023-02-24T05:51:01;24.77;;;5.60;;
20283;SDS011;10301;50.832;4.080;2023-02-24T05:53:31;19.33;;;4.67;;
20283;SDS011;10301;50.832;4.080;2023-02-24T05:56:01;20.17;;;3.47;;
20283;SDS011;10301;50.832;4.080;2023-02-24T05:58:29;13.17;;;2.93;;
20283;SDS011;10301;50.832;4.080;2023-02-24T06:00:56;15.13;;;3.57;;
20283;SDS011;10301;50.832;4.080;2023-02-24T06:03:29;21.90;;;4.00;;
20283;SDS011;10301;50.832;4.080;2023-02-24T06:05:57;18.97;;;3.43;;
20283;SDS011;10301;50.832;4.080;2023-02-24T06:08:29;23.03;;;3.70;;
20283;SDS011;10301;50.832;4.080;2023-02-24T06:11:06;22.03;;;3.97;;
20283;SDS011;10301;50.832;4.080;2023-02-24T06:13:33;15.63;;;3.33;;
20283;SDS011;10301;50.832;4.080;2023-02-24T06:15:58;10.60;;;3.50;;
20283;SDS011;10301;50.832;4.080;2023-02-24T06:18:24;18.93;;;4.90;;
20283;SDS011;10301;50.832;4.080;2023-02-24T06:20:50;16.50;;;4.33;;
20283;SDS011;10301;50.832;4.080;2023-02-24T06:23:15;16.33;;;3.90;;
20283;SDS011;10301;50.832;4.080;2023-02-24T06:25:42;17.93;;;3.90;;
20283;SDS011;10301;50.832;4.080;2023-02-24T06:28:08;18.90;;;3.87;;
20283;SDS011;10301;50.832;4.080;2023-02-24T06:30:34;20.93;;;4.40;;
20283;SDS011;10301;50.832;4.080;2023-02-24T06:33:01;16.77;;;4.03;;
20283;SDS011;10301;50.832;4.080;2023-02-24T06:35:29;17.93;;;3.53;;
20283;SDS011;10301;50.832;4.080;2023-02-24T06:37:59;24.47;;;4.10;;
20283;SDS011;10301;50.832;4.080;2023-02-24T06:40:24;13.67;;;3.80;;
20283;SDS011;10301;50.832;4.080;2023-02-24T06:42:50;18.60;;;3.77;;
20283;SDS011;10301;50.832;4.080;2023-02-24T06:45:19;19.67;;;4.50;;
20283;SDS011;10301;50.832;4.080;2023-02-24T06:47:46;15.87;;;4.43;;
20283;SDS011;10301;50.832;4.080;2023-02-24T06:50:15;17.10;;;4.30;;
20283;SDS011;10301;50.832;4.080;2023-02-24T06:52:46;18.87;;;4.63;;
20283;SDS011;10301;50.832;4.080;2023-02-24T06:55:12;20.07;;;5.07;;
20283;SDS011;10301;50.832;4.080;2023-02-24T06:57:56;17.33;;;4.30;;
20283;SDS011;10301;50.832;4.080;2023-02-24T07:00:28;13.33;;;3.93;;
20283;SDS011;10301;50.832;4.080;2023-02-24T07:03:06;18.10;;;4.13;;
20283;SDS011;10301;50.832;4.080;2023-02-24T07:05:41;16.67;;;3.93;;
20283;SDS011;10301;50.832;4.080;2023-02-24T07:08:33;19.83;;;3.50;;
20283;SDS011;10301;50.832;4.080;2023-02-24T07:11:00;12.10;;;3.10;;
20283;SDS011;10301;50.832;4.080;2023-02-24T07:13:27;17.47;;;3.47;;
20283;SDS011;10301;50.832;4.080;2023-02-24T07:15:55;18.47;;;3.63;;
20283;SDS011;10301;50.832;4.080;2023-02-24T07:18:24;12.83;;;3.33;;
20283;SDS011;10301;50.832;4.080;2023-02-24T07:20:50;17.60;;;3.50;;
20283;SDS011;10301;50.832;4.080;2023-02-24T07:23:16;12.77;;;3.63;;
20283;SDS011;10301;50.832;4.080;2023-02-24T07:25:42;12.00;;;3.27;;
20283;SDS011;10301;50.832;4.080;2023-02-24T07:28:10;21.60;;;3.60;;
20283;SDS011;10301;50.832;4.080;2023-02-24T07:30:40;17.03;;;3.50;;
20283;SDS011;10301;50.832;4.080;2023-02-24T07:33:06;12.77;;;3.30;;
20283;SDS011;10301;50.832;4.080;2023-02-24T07:35:33;13.83;;;3.27;;
20283;SDS011;10301;50.832;4.080;2023-02-24T07:38:04;13.93;;;3.57;;
20283;SDS011;10301;50.832;4.080;2023-02-24T07:40:30;17.77;;;4.27;;
20283;SDS011;10301;50.832;4.080;2023-02-24T07:42:58;18.80;;;4.77;;
20283;SDS011;10301;50.832;4.080;2023-02-24T07:45:26;15.40;;;4.17;;
20283;SDS011;10301;50.832;4.080;2023-02-24T07:47:53;18.03;;;4.40;;
20283;SDS011;10301;50.832;4.080;2023-02-24T07:50:19;18.70;;;4.43;;
20283;SDS011;10301;50.832;4.080;2023-02-24T07:52:45;22.43;;;6.00;;
20283;SDS011;10301;50.832;4.080;2023-02-24T07:55:15;14.53;;;3.90;;
20283;SDS011;10301;50.832;4.080;2023-02-24T07:57:41;16.47;;;4.20;;
20283;SDS011;10301;50.832;4.080;2023-02-24T08:00:11;12.13;;;3.60;;
20283;SDS011;10301;50.832;4.080;2023-02-24T08:02:48;14.03;;;4.30;;
20283;SDS011;10301;50.832;4.080;2023-02-24T08:05:17;13.83;;;3.63;;
20283;SDS011;10301;50.832;4.080;2023-02-24T08:07:43;19.30;;;5.20;;
20283;SDS011;10301;50.832;4.080;2023-02-24T08:10:23;30.13;;;5.87;;
20283;SDS011;10301;50.832;4.080;2023-02-24T08:12:52;13.80;;;4.43;;
20283;SDS011;10301;50.832;4.080;2023-02-24T08:15:19;16.50;;;4.23;;
20283;SDS011;10301;50.832;4.080;2023-02-24T08:17:52;18.10;;;4.93;;
20283;SDS011;10301;50.832;4.080;2023-02-24T08:20:23;21.63;;;4.70;;
20283;SDS011;10301;50.832;4.080;2023-02-24T08:22:50;13.77;;;4.10;;
20283;SDS011;10301;50.832;4.080;2023-02-24T08:25:19;10.33;;;4.10;;
20283;SDS011;10301;50.832;4.080;2023-02-24T08:27:48;14.67;;;4.63;;
20283;SDS011;10301;50.832;4.080;2023-02-24T08:30:24;17.10;;;5.03;;
20283;SDS011;10301;50.832;4.080;2023-02-24T08:32:54;18.80;;;4.67;;
20283;SDS011;10301;50.832;4.080;2023-02-24T08:35:30;15.03;;;4.57;;
20283;SDS011;10301;50.832;4.080;2023-02-24T08:40:38;16.43;;;4.03;;
20283;SDS011;10301;50.832;4.080;2023-02-24T08:43:26;20.27;;;4.47;;
20283;SDS011;10301;50.832;4.080;2023-02-24T08:45:54;18.40;;;4.17;;
20283;SDS011;10301;50.832;4.080;2023-02-24T08:48:52;25.13;;;5.70;;
20283;SDS011;10301;50.832;4.080;2023-02-24T08:54:03;27.33;;;5.00;;
20283;SDS011;10301;50.832;4.080;2023-02-24T08:56:35;22.83;;;4.87;;
20283;SDS011;10301;50.832;4.080;2023-02-24T08:59:07;20.23;;;5.23;;
20283;SDS011;10301;50.832;4.080;2023-02-24T09:01:53;13.97;;;3.87;;
20283;SDS011;10301;50.832;4.080;2023-02-24T09:04:41;16.50;;;3.93;;
20283;SDS011;10301;50.832;4.080;2023-02-24T09:07:13;14.30;;;4.20;;
20283;SDS011;10301;50.832;4.080;2023-02-24T09:09:49;19.37;;;4.73;;
20283;SDS011;10301;50.832;4.080;2023-02-24T09:12:20;14.33;;;3.93;;
20283;SDS011;10301;50.832;4.080;2023-02-24T09:15:01;18.13;;;4.03;;
20283;SDS011;10301;50.832;4.080;2023-02-24T09:17:31;18.00;;;4.10;;
20283;SDS011;10301;50.832;4.080;2023-02-24T09:20:19;18.73;;;3.70;;
20283;SDS011;10301;50.832;4.080;2023-02-24T09:23:24;19.60;;;3.57;;
20283;SDS011;10301;50.832;4.080;2023-02-24T09:26:09;14.37;;;3.00;;
20283;SDS011;10301;50.832;4.080;2023-02-24T09:28:38;12.20;;;2.93;;
20283;SDS011;10301;50.832;4.080;2023-02-24T09:31:18;10.93;;;2.83;;
20283;SDS011;10301;50.832;4.080;2023-02-24T09:33:48;12.37;;;2.90;;
20283;SDS011;10301;50.832;4.080;2023-02-24T09:36:17;13.53;;;3.03;;
20283;SDS011;10301;50.832;4.080;2023-02-24T09:44:13;14.40;;;2.70;;
20283;SDS011;10301;50.832;4.080;2023-02-24T09:46:53;14.50;;;3.07;;
20283;SDS011;10301;50.832;4.080;2023-02-24T09:49:26;10.27;;;3.50;;
20283;SDS011;10301;50.832;4.080;2023-02-24T09:52:24;8.03;;;2.53;;
20283;SDS011;10301;50.832;4.080;2023-02-24T09:58:35;10.07;;;2.50;;
20283;SDS011;10301;50.832;4.080;2023-02-24T10:01:07;17.47;;;2.83;;
20283;SDS011;10301;50.832;4.080;2023-02-24T10:03:51;13.53;;;3.53;;
20283;SDS011;10301;50.832;4.080;2023-02-24T10:06:26;12.73;;;3.50;;
20283;SDS011;10301;50.832;4.080;2023-02-24T10:11:49;9.23;;;2.07;;
20283;SDS011;10301;50.832;4.080;2023-02-24T10:14:24;12.93;;;2.80;;
20283;SDS011;10301;50.832;4.080;2023-02-24T10:17:06;21.23;;;4.60;;
20283;SDS011;10301;50.832;4.080;2023-02-24T10:19:47;17.80;;;4.13;;
20283;SDS011;10301;50.832;4.080;2023-02-24T10:31:41;16.40;;;3.47;;
20283;SDS011;10301;50.832;4.080;2023-02-24T10:34:12;10.00;;;3.07;;
20283;SDS011;10301;50.832;4.080;2023-02-24T10:36:49;16.30;;;3.30;;
20283;SDS011;10301;50.832;4.080;2023-02-24T10:39:19;12.77;;;3.10;;
20283;SDS011;10301;50.832;4.080;2023-02-24T10:41:51;11.50;;;3.00;;
20283;SDS011;10301;50.832;4.080;2023-02-24T10:44:23;16.83;;;3.07;;
20283;SDS011;10301;50.832;4.080;2023-02-24T10:47:00;8.40;;;2.57;;
20283;SDS011;10301;50.832;4.080;2023-02-24T10:49:45;14.53;;;4.03;;
20283;SDS011;10301;50.832;4.080;2023-02-24T10:52:22;13.27;;;3.27;;
20283;SDS011;10301;50.832;4.080;2023-02-24T10:55:28;10.70;;;3.27;;
20283;SDS011;10301;50.832;4.080;2023-02-24T11:00:47;12.00;;;3.17;;
20283;SDS011;10301;50.832;4.080;2023-02-24T11:03:37;12.50;;;2.90;;
20283;SDS011;10301;50.832;4.080;2023-02-24T11:06:23;8.93;;;3.57;;
20283;SDS011;10301;50.832;4.080;2023-02-24T11:09:05;11.23;;;3.23;;
20283;SDS011;10301;50.832;4.080;2023-02-24T11:11:57;13.43;;;3.37;;
20283;SDS011;10301;50.832;4.080;2023-02-24T11:14:52;12.93;;;3.60;;
20283;SDS011;10301;50.832;4.080;2023-02-24T11:17:54;9.00;;;3.43;;
20283;SDS011;10301;50.832;4.080;2023-02-24T11:23:03;11.70;;;3.07;;
20283;SDS011;10301;50.832;4.080;2023-02-24T11:25:35;15.83;;;3.67;;
20283;SDS011;10301;50.832;4.080;2023-02-24T11:28:03;11.47;;;3.57;;
20283;SDS011;10301;50.832;4.080;2023-02-24T11:30:44;15.50;;;3.93;;
20283;SDS011;10301;50.832;4.080;2023-02-24T11:33:17;10.20;;;3.30;;
20283;SDS011;10301;50.832;4.080;2023-02-24T11:36:07;10.13;;;3.13;;
20283;SDS011;10301;50.832;4.080;2023-02-24T11:38:48;13.03;;;3.67;;
20283;SDS011;10301;50.832;4.080;2023-02-24T11:41:28;9.83;;;3.60;;
20283;SDS011;10301;50.832;4.080;2023-02-24T11:44:01;9.30;;;3.30;;
20283;SDS011;10301;50.832;4.080;2023-02-24T11:46:44;11.43;;;3.23;;
20283;SDS011;10301;50.832;4.080;2023-02-24T11:49:29;13.13;;;3.80;;
20283;SDS011;10301;50.832;4.080;2023-02-24T11:52:12;18.97;;;3.80;;
20283;SDS011;10301;50.832;4.080;2023-02-24T11:54:44;11.33;;;4.23;;
20283;SDS011;10301;50.832;4.080;2023-02-24T11:57:15;16.07;;;4.07;;
20283;SDS011;10301;50.832;4.080;2023-02-24T11:59:50;13.17;;;4.13;;
20283;SDS011;10301;50.832;4.080;2023-02-24T12:02:32;15.67;;;4.70;;
20283;SDS011;10301;50.832;4.080;2023-02-24T12:05:12;21.93;;;5.60;;
20283;SDS011;10301;50.832;4.080;2023-02-24T12:07:44;16.43;;;4.13;;
20283;SDS011;10301;50.832;4.080;2023-02-24T12:10:17;21.53;;;5.70;;
20283;SDS011;10301;50.832;4.080;2023-02-24T12:12:48;12.27;;;4.40;;
20283;SDS011;10301;50.832;4.080;2023-02-24T12:18:08;9.80;;;3.83;;
20283;SDS011;10301;50.832;4.080;2023-02-24T12:20:47;11.27;;;4.17;;
20283;SDS011;10301;50.832;4.080;2023-02-24T12:25:59;12.57;;;4.20;;
20283;SDS011;10301;50.832;4.080;2023-02-24T12:39:55;12.10;;;4.37;;
20283;SDS011;10301;50.832;4.080;2023-02-24T12:53:42;12.63;;;4.00;;
20283;SDS011;10301;50.832;4.080;2023-02-24T12:56:17;13.47;;;3.77;;
20283;SDS011;10301;50.832;4.080;2023-02-24T12:58:49;10.90;;;4.13;;
20283;SDS011;10301;50.832;4.080;2023-02-24T13:14:53;13.38;;;5.05;;
20283;SDS011;10301;50.832;4.080;2023-02-24T13:17:20;13.50;;;4.85;;
20283;SDS011;10301;50.832;4.080;2023-02-24T13:19:48;13.63;;;4.90;;
20283;SDS011;10301;50.832;4.080;2023-02-24T13:22:20;18.27;;;5.70;;
20283;SDS011;10301;50.832;4.080;2023-02-24T13:27:39;15.07;;;6.23;;
20283;SDS011;10301;50.832;4.080;2023-02-24T13:32:46;11.27;;;5.37;;
20283;SDS011;10301;50.832;4.080;2023-02-24T13:35:43;21.57;;;8.20;;
20283;SDS011;10301;50.832;4.080;2023-02-24T13:51:52;18.57;;;7.27;;
20283;SDS011;10301;50.832;4.080;2023-02-24T13:54:31;16.77;;;8.03;;
20283;SDS011;10301;50.832;4.080;2023-02-24T14:02:45;15.43;;;8.17;;
20283;SDS011;10301;50.832;4.080;2023-02-24T14:05:31;19.33;;;8.60;;
20283;SDS011;10301;50.832;4.080;2023-02-24T14:07:59;20.80;;;9.00;;
20283;SDS011;10301;50.832;4.080;2023-02-24T14:10:30;17.83;;;9.10;;
20283;SDS011;10301;50.832;4.080;2023-02-24T14:13:18;19.10;;;9.43;;
20283;SDS011;10301;50.832;4.080;2023-02-24T14:15:51;22.30;;;9.77;;
20283;SDS011;10301;50.832;4.080;2023-02-24T14:18:19;20.83;;;9.33;;
20283;SDS011;10301;50.832;4.080;2023-02-24T14:20:46;18.13;;;8.27;;
20283;SDS011;10301;50.832;4.080;2023-02-24T14:25:51;20.57;;;7.73;;
20283;SDS011;10301;50.832;4.080;2023-02-24T14:28:21;24.53;;;8.67;;
20283;SDS011;10301;50.832;4.080;2023-02-24T14:30:56;17.47;;;8.10;;
20283;SDS011;10301;50.832;4.080;2023-02-24T14:33:25;19.10;;;8.30;;
20283;SDS011;10301;50.832;4.080;2023-02-24T14:35:56;20.57;;;7.77;;
20283;SDS011;10301;50.832;4.080;2023-02-24T14:38:30;22.73;;;8.33;;
20283;SDS011;10301;50.832;4.080;2023-02-24T14:41:01;18.83;;;7.43;;
20283;SDS011;10301;50.832;4.080;2023-02-24T14:43:29;19.70;;;8.77;;
20283;SDS011;10301;50.832;4.080;2023-02-24T14:45:54;22.73;;;9.20;;
20283;SDS011;10301;50.832;4.080;2023-02-24T14:48:25;22.53;;;8.70;;
20283;SDS011;10301;50.832;4.080;2023-02-24T14:50:56;21.63;;;9.00;;
20283;SDS011;10301;50.832;4.080;2023-02-24T14:53:30;23.77;;;9.93;;
20283;SDS011;10301;50.832;4.080;2023-02-24T14:55:59;25.23;;;12.47;;
20283;SDS011;10301;50.832;4.080;2023-02-24T14:58:30;25.47;;;11.97;;
20283;SDS011;10301;50.832;4.080;2023-02-24T15:01:01;20.70;;;10.73;;
20283;SDS011;10301;50.832;4.080;2023-02-24T15:03:44;20.27;;;10.33;;
20283;SDS011;10301;50.832;4.080;2023-02-24T15:06:22;19.43;;;9.87;;
20283;SDS011;10301;50.832;4.080;2023-02-24T15:08:56;20.10;;;10.47;;
20283;SDS011;10301;50.832;4.080;2023-02-24T15:11:26;15.43;;;9.40;;
20283;SDS011;10301;50.832;4.080;2023-02-24T15:19:04;16.73;;;9.93;;
20283;SDS011;10301;50.832;4.080;2023-02-24T15:21:45;14.03;;;8.43;;
20283;SDS011;10301;50.832;4.080;2023-02-24T15:24:18;15.83;;;8.57;;
20283;SDS011;10301;50.832;4.080;2023-02-24T15:26:52;16.10;;;9.53;;
20283;SDS011;10301;50.832;4.080;2023-02-24T15:29:27;15.13;;;9.63;;
20283;SDS011;10301;50.832;4.080;2023-02-24T15:31:55;16.57;;;9.73;;
20283;SDS011;10301;50.832;4.080;2023-02-24T15:34:27;18.60;;;11.37;;
20283;SDS011;10301;50.832;4.080;2023-02-24T15:36:57;15.23;;;10.50;;
20283;SDS011;10301;50.832;4.080;2023-02-24T15:39:27;16.97;;;10.20;;
20283;SDS011;10301;50.832;4.080;2023-02-24T15:42:18;16.37;;;9.23;;
20283;SDS011;10301;50.832;4.080;2023-02-24T15:44:52;16.17;;;10.63;;
20283;SDS011;10301;50.832;4.080;2023-02-24T15:47:24;17.20;;;10.37;;
20283;SDS011;10301;50.832;4.080;2023-02-24T15:49:56;16.50;;;9.93;;
20283;SDS011;10301;50.832;4.080;2023-02-24T15:52:23;17.40;;;10.43;;
20283;SDS011;10301;50.832;4.080;2023-02-24T15:54:51;16.40;;;10.53;;
20283;SDS011;10301;50.832;4.080;2023-02-24T15:57:18;18.00;;;11.97;;
20283;SDS011;10301;50.832;4.080;2023-02-24T15:59:44;17.60;;;12.47;;
20283;SDS011;10301;50.832;4.080;2023-02-24T16:02:15;21.30;;;12.47;;
20283;SDS011;10301;50.832;4.080;2023-02-24T16:04:45;19.50;;;11.10;;
20283;SDS011;10301;50.832;4.080;2023-02-24T16:07:15;23.10;;;11.70;;
20283;SDS011;10301;50.832;4.080;2023-02-24T16:09:54;20.13;;;11.43;;
20283;SDS011;10301;50.832;4.080;2023-02-24T16:12:23;17.63;;;11.00;;
20283;SDS011;10301;50.832;4.080;2023-02-24T16:14:53;22.13;;;11.90;;
20283;SDS011;10301;50.832;4.080;2023-02-24T16:19:59;22.90;;;11.00;;
20283;SDS011;10301;50.832;4.080;2023-02-24T16:22:27;23.10;;;10.20;;
20283;SDS011;10301;50.832;4.080;2023-02-24T16:24:53;22.63;;;11.03;;
20283;SDS011;10301;50.832;4.080;2023-02-24T16:27:19;18.07;;;10.33;;
20283;SDS011;10301;50.832;4.080;2023-02-24T16:29:47;21.10;;;11.23;;
20283;SDS011;10301;50.832;4.080;2023-02-24T16:32:15;20.47;;;11.07;;
20283;SDS011;10301;50.832;4.080;2023-02-24T16:34:40;22.80;;;11.77;;
20283;SDS011;10301;50.832;4.080;2023-02-24T16:37:14;22.60;;;10.97;;
20283;SDS011;10301;50.832;4.080;2023-02-24T16:39:48;21.70;;;10.63;;
20283;SDS011;10301;50.832;4.080;2023-02-24T16:42:14;19.27;;;10.33;;
20283;SDS011;10301;50.832;4.080;2023-02-24T16:44:41;24.57;;;10.37;;
20283;SDS011;10301;50.832;4.080;2023-02-24T16:47:10;24.63;;;10.40;;
20283;SDS011;10301;50.832;4.080;2023-02-24T16:49:38;25.17;;;10.40;;
20283;SDS011;10301;50.832;4.080;2023-02-24T16:52:05;28.70;;;10.40;;
20283;SDS011;10301;50.832;4.080;2023-02-24T16:54:31;23.37;;;10.03;;
20283;SDS011;10301;50.832;4.080;2023-02-24T16:56:56;21.23;;;10.33;;
20283;SDS011;10301;50.832;4.080;2023-02-24T16:59:22;23.93;;;11.03;;
20283;SDS011;10301;50.832;4.080;2023-02-24T17:01:50;28.00;;;10.47;;
20283;SDS011;10301;50.832;4.080;2023-02-24T17:04:17;19.33;;;8.67;;
20283;SDS011;10301;50.832;4.080;2023-02-24T17:06:44;14.30;;;5.63;;
20283;SDS011;10301;50.832;4.080;2023-02-24T17:09:10;21.60;;;6.10;;
20283;SDS011;10301;50.832;4.080;2023-02-24T17:11:39;16.80;;;6.40;;
20283;SDS011;10301;50.832;4.080;2023-02-24T17:14:08;20.33;;;7.93;;
20283;SDS011;10301;50.832;4.080;2023-02-24T17:16:44;22.13;;;7.33;;
20283;SDS011;10301;50.832;4.080;2023-02-24T17:19:11;15.30;;;5.50;;
20283;SDS011;10301;50.832;4.080;2023-02-24T17:21:38;16.87;;;5.10;;
20283;SDS011;10301;50.832;4.080;2023-02-24T17:24:25;14.73;;;4.47;;
20283;SDS011;10301;50.832;4.080;2023-02-24T17:26:52;11.50;;;4.23;;
20283;SDS011;10301;50.832;4.080;2023-02-24T17:29:22;14.27;;;4.37;;
20283;SDS011;10301;50.832;4.080;2023-02-24T17:31:48;9.00;;;3.80;;
20283;SDS011;10301;50.832;4.080;2023-02-24T17:34:14;16.97;;;3.87;;
20283;SDS011;10301;50.832;4.080;2023-02-24T17:36:40;11.80;;;3.17;;